Time;durP1;ratioP1;P1;durP2;ratioP2;P2;SDS_P1;SDS_P2;PMS_P1;PMS_P2;Temp;Humidity;BMP_temperature;BMP_pressure;BME280_temperature;BME280_humidity;BME280_pressure;Samples;Min_cycle;Max_cycle;Signal;HPM_P1;HPM_P2
2023/04/14 00:00:17;;;;;;;14.70;6.53;;;;;;;;;;5011676;28;20399;-45
2023/04/14 00:02:43;;;;;;;8.57;6.83;;;;;;;;;;5011847;28;20454;-44
2023/04/14 00:05:09;;;;;;;7.80;6.67;;;;;;;;;;5014369;28;20411;-45
2023/04/14 00:07:35;;;;;;;10.17;7.33;;;;;;;;;;5015190;28;20663;-45
2023/04/14 00:10:01;;;;;;;7.77;6.10;;;;;;;;;;5013317;28;20438;-44
2023/04/14 00:12:27;;;;;;;12.20;6.80;;;;;;;;;;5010037;28;20935;-45
2023/04/14 00:14:53;;;;;;;13.27;6.90;;;;;;;;;;5014354;28;20555;-45
2023/04/14 00:17:19;;;;;;;10.47;6.73;;;;;;;;;;5008664;28;20948;-45
2023/04/14 00:19:45;;;;;;;12.50;6.23;;;;;;;;;;5013714;28;20742;-45
2023/04/14 00:22:11;;;;;;;12.23;6.77;;;;;;;;;;5015256;28;20412;-45
2023/04/14 00:24:42;;;;;;;13.93;7.35;;;;;;;;;;5015083;28;20416;-44
2023/04/14 00:27:08;;;;;;;11.87;6.07;;;;;;;;;;5014610;28;20180;-45
2023/04/14 00:29:34;;;;;;;10.83;5.10;;;;;;;;;;5008747;28;20416;-45
2023/04/14 00:32:00;;;;;;;11.30;6.00;;;;;;;;;;5014969;28;20417;-45
2023/04/14 00:34:26;;;;;;;8.17;5.53;;;;;;;;;;5013555;28;20478;-45
2023/04/14 00:36:52;;;;;;;9.63;5.40;;;;;;;;;;5014689;28;20403;-45
2023/04/14 00:39:18;;;;;;;7.40;5.03;;;;;;;;;;5014581;28;21007;-45
2023/04/14 00:41:44;;;;;;;8.43;5.23;;;;;;;;;;5027033;28;20423;-45
2023/04/14 00:44:10;;;;;;;9.17;5.67;;;;;;;;;;5008735;28;20411;-44
2023/04/14 00:46:36;;;;;;;10.20;5.40;;;;;;;;;;5014649;28;20506;-45
2023/04/14 00:49:03;;;;;;;10.07;4.90;;;;;;;;;;5013215;28;20510;-45
2023/04/14 00:51:29;;;;;;;7.47;3.95;;;;;;;;;;5014640;28;20922;-45
2023/04/14 00:53:55;;;;;;;7.73;3.90;;;;;;;;;;5014303;28;20197;-45
2023/04/14 00:56:22;;;;;;;4.53;3.40;;;;;;;;;;5014352;28;20817;-44
2023/04/14 00:58:50;;;;;;;7.47;3.97;;;;;;;;;;5014102;28;20191;-44
2023/04/14 01:01:16;;;;;;;6.85;4.00;;;;;;;;;;5014150;28;20188;-45
2023/04/14 01:03:43;;;;;;;8.33;3.73;;;;;;;;;;5012621;28;20688;-45
2023/04/14 01:06:09;;;;;;;11.10;4.35;;;;;;;;;;5011224;28;20821;-44
2023/04/14 01:08:35;;;;;;;8.70;4.47;;;;;;;;;;5012881;28;20300;-44
2023/04/14 01:11:10;;;;;;;6.88;3.28;;;;;;;;;;5015529;28;20427;-45
2023/04/14 01:13:55;;;;;;;5.85;3.15;;;;;;;;;;5007320;28;20181;-45
2023/04/14 01:16:28;;;;;;;5.17;3.00;;;;;;;;;;5012434;28;20184;-45
2023/04/14 01:19:29;;;;;;;7.00;2.97;;;;;;;;;;5013646;28;20989;-45
2023/04/14 01:21:57;;;;;;;6.53;2.45;;;;;;;;;;4945388;29;20257;-45
2023/04/14 01:24:26;;;;;;;3.75;2.55;;;;;;;;;;4996924;28;20279;-45
2023/04/14 01:27:00;;;;;;;6.85;2.97;;;;;;;;;;5013243;28;20172;-45
2023/04/14 01:29:35;;;;;;;8.93;3.05;;;;;;;;;;5014012;28;20163;-45
2023/04/14 01:32:04;;;;;;;3.25;2.45;;;;;;;;;;5006540;28;20543;-45
2023/04/14 01:35:04;;;;;;;8.73;3.10;;;;;;;;;;5011295;28;20567;-45
2023/04/14 01:37:33;;;;;;;11.17;2.73;;;;;;;;;;4979933;28;20235;-45
2023/04/14 01:40:06;;;;;;;5.17;3.30;;;;;;;;;;5011735;28;20412;-45
2023/04/14 01:42:36;;;;;;;11.63;3.17;;;;;;;;;;5018849;28;20786;-44
2023/04/14 01:45:04;;;;;;;9.07;4.83;;;;;;;;;;5012789;28;20415;-45
2023/04/14 01:47:31;;;;;;;10.00;3.92;;;;;;;;;;5013358;28;20450;-45
2023/04/14 01:49:58;;;;;;;4.60;4.10;;;;;;;;;;5005556;28;20172;-45
2023/04/14 01:52:25;;;;;;;9.82;4.18;;;;;;;;;;5013330;28;20263;-45
2023/04/14 01:54:52;;;;;;;9.25;4.03;;;;;;;;;;5011661;28;20316;-47
2023/04/14 01:57:21;;;;;;;9.02;4.00;;;;;;;;;;5007936;28;20185;-47
2023/04/14 01:59:49;;;;;;;3.85;2.95;;;;;;;;;;5012591;28;20180;-47
2023/04/14 02:02:15;;;;;;;9.60;3.70;;;;;;;;;;5013320;28;20632;-45
2023/04/14 02:04:42;;;;;;;4.30;2.97;;;;;;;;;;5013184;28;20180;-45
2023/04/14 02:07:09;;;;;;;6.10;3.25;;;;;;;;;;5012716;28;20215;-45
2023/04/14 02:09:36;;;;;;;5.97;3.05;;;;;;;;;;5013068;28;20692;-45
2023/04/14 02:12:02;;;;;;;3.60;3.08;;;;;;;;;;5012418;28;20176;-45
2023/04/14 02:14:30;;;;;;;3.60;2.50;;;;;;;;;;5015878;28;20208;-45
2023/04/14 02:16:57;;;;;;;6.07;4.15;;;;;;;;;;5004875;28;20538;-45
2023/04/14 02:19:24;;;;;;;13.20;4.10;;;;;;;;;;5009045;28;20223;-45
2023/04/14 02:21:51;;;;;;;9.73;3.97;;;;;;;;;;5012828;28;20633;-44
2023/04/14 02:24:18;;;;;;;8.48;3.95;;;;;;;;;;5011235;28;20184;-45
2023/04/14 02:26:55;;;;;;;4.70;3.92;;;;;;;;;;5011186;28;20668;-45
2023/04/14 02:29:22;;;;;;;10.98;4.65;;;;;;;;;;5012859;28;20176;-45
2023/04/14 02:32:00;;;;;;;7.60;4.45;;;;;;;;;;5012650;28;20640;-45
2023/04/14 02:34:28;;;;;;;5.97;4.00;;;;;;;;;;5012756;28;20215;-45
2023/04/14 02:36:56;;;;;;;8.55;4.05;;;;;;;;;;5012095;28;20259;-45
2023/04/14 02:39:36;;;;;;;5.82;4.32;;;;;;;;;;5012661;28;20161;-45
2023/04/14 02:42:05;;;;;;;5.40;3.22;;;;;;;;;;5005526;28;20227;-45
2023/04/14 02:44:34;;;;;;;3.60;2.83;;;;;;;;;;5010329;28;20184;-45
2023/04/14 02:47:07;;;;;;;9.65;3.70;;;;;;;;;;5012216;28;20248;-45
2023/04/14 02:49:37;;;;;;;8.10;3.55;;;;;;;;;;5012492;28;20184;-44
2023/04/14 02:52:05;;;;;;;6.45;3.08;;;;;;;;;;5012456;28;20267;-45
2023/04/14 02:54:34;;;;;;;6.82;2.60;;;;;;;;;;5015992;28;20239;-45
2023/04/14 02:57:00;;;;;;;13.82;3.78;;;;;;;;;;5012563;28;20672;-44
2023/04/14 02:59:28;;;;;;;11.00;3.47;;;;;;;;;;5012316;28;20172;-45
2023/04/14 03:01:54;;;;;;;6.35;3.25;;;;;;;;;;5012430;28;20169;-45
2023/04/14 03:04:21;;;;;;;7.70;4.70;;;;;;;;;;5012294;28;20632;-45
2023/04/14 03:06:48;;;;;;;11.82;7.10;;;;;;;;;;5013999;28;20177;-45
2023/04/14 03:09:14;;;;;;;18.27;9.23;;;;;;;;;;5011727;28;20549;-45
2023/04/14 03:11:41;;;;;;;15.48;8.88;;;;;;;;;;5012048;28;20176;-44
2023/04/14 03:14:07;;;;;;;10.60;7.78;;;;;;;;;;5012039;28;20215;-45
2023/04/14 03:16:34;;;;;;;15.20;5.82;;;;;;;;;;5011928;28;20182;-44
2023/04/14 03:19:01;;;;;;;9.00;5.72;;;;;;;;;;5012441;28;20195;-44
2023/04/14 03:21:28;;;;;;;12.20;5.53;;;;;;;;;;5012027;28;20172;-43
2023/04/14 03:23:55;;;;;;;7.10;5.40;;;;;;;;;;5013173;28;20262;-43
2023/04/14 03:26:23;;;;;;;7.47;5.35;;;;;;;;;;5013604;28;20187;-43
2023/04/14 03:28:52;;;;;;;11.82;5.22;;;;;;;;;;5011691;28;20566;-44
2023/04/14 03:31:19;;;;;;;8.45;4.35;;;;;;;;;;5011941;28;20190;-44
2023/04/14 03:33:46;;;;;;;7.90;3.58;;;;;;;;;;5011822;28;20176;-43
2023/04/14 03:36:15;;;;;;;3.90;2.90;;;;;;;;;;5011734;28;20259;-43
2023/04/14 03:38:42;;;;;;;4.95;3.22;;;;;;;;;;5010741;28;20627;-44
2023/04/14 03:41:08;;;;;;;7.70;3.17;;;;;;;;;;5011818;28;20248;-43
2023/04/14 03:43:35;;;;;;;11.52;5.03;;;;;;;;;;5012010;28;20263;-43
2023/04/14 03:46:04;;;;;;;11.15;6.03;;;;;;;;;;5011855;28;20654;-44
2023/04/14 03:48:33;;;;;;;11.85;6.30;;;;;;;;;;5011358;28;20196;-43
2023/04/14 03:51:01;;;;;;;11.10;6.70;;;;;;;;;;5003864;28;20172;-44
2023/04/14 03:53:28;;;;;;;13.27;5.45;;;;;;;;;;5009797;28;20191;-44
2023/04/14 03:55:55;;;;;;;12.85;6.22;;;;;;;;;;5009688;28;20702;-43
2023/04/14 03:58:21;;;;;;;11.90;6.43;;;;;;;;;;5011463;28;20741;-44
2023/04/14 04:00:48;;;;;;;14.73;7.60;;;;;;;;;;5011949;28;20176;-43
2023/04/14 04:03:14;;;;;;;9.90;4.72;;;;;;;;;;5014548;28;20176;-44
2023/04/14 04:05:40;;;;;;;12.65;5.57;;;;;;;;;;5013867;28;20239;-43
2023/04/14 04:08:07;;;;;;;12.13;5.30;;;;;;;;;;5009979;28;20200;-43
2023/04/14 04:10:34;;;;;;;8.40;4.43;;;;;;;;;;5011581;28;20219;-43
2023/04/14 04:13:06;;;;;;;12.82;4.70;;;;;;;;;;5011675;28;20276;-44
2023/04/14 04:15:32;;;;;;;5.00;3.20;;;;;;;;;;5010381;28;20307;-43
2023/04/14 04:17:59;;;;;;;6.53;2.85;;;;;;;;;;5011121;28;20682;-44
2023/04/14 04:20:26;;;;;;;3.97;2.50;;;;;;;;;;5011586;28;20220;-43
2023/04/14 04:22:52;;;;;;;8.63;3.55;;;;;;;;;;5011487;28;20180;-43
2023/04/14 04:25:19;;;;;;;11.07;3.63;;;;;;;;;;5015470;28;20214;-43
2023/04/14 04:27:45;;;;;;;6.68;3.92;;;;;;;;;;5013150;28;20207;-44
2023/04/14 04:30:12;;;;;;;7.00;4.20;;;;;;;;;;5010511;28;20640;-45
2023/04/14 04:32:39;;;;;;;7.78;3.50;;;;;;;;;;5011341;28;20204;-44
2023/04/14 04:35:05;;;;;;;3.55;2.97;;;;;;;;;;5011345;28;20196;-43
2023/04/14 04:37:32;;;;;;;5.35;3.70;;;;;;;;;;5011086;28;20203;-44
2023/04/14 04:39:58;;;;;;;7.65;3.53;;;;;;;;;;5011523;28;20191;-45
2023/04/14 04:42:24;;;;;;;9.87;4.10;;;;;;;;;;5011514;28;20177;-43
2023/04/14 04:44:50;;;;;;;18.70;5.32;;;;;;;;;;5010481;28;20473;-43
2023/04/14 04:47:16;;;;;;;6.63;4.82;;;;;;;;;;5012102;28;20204;-45
2023/04/14 04:49:42;;;;;;;9.70;5.20;;;;;;;;;;5009280;28;20180;-44
2023/04/14 04:52:08;;;;;;;13.60;5.47;;;;;;;;;;5014955;28;20446;-43
2023/04/14 04:54:34;;;;;;;12.32;5.30;;;;;;;;;;5014524;28;20976;-43
2023/04/14 04:57:00;;;;;;;11.07;5.07;;;;;;;;;;5014010;28;20176;-43
2023/04/14 04:59:26;;;;;;;7.40;4.78;;;;;;;;;;5013370;28;20411;-44
2023/04/14 05:01:52;;;;;;;11.57;3.80;;;;;;;;;;5014171;28;20175;-43
2023/04/14 05:04:18;;;;;;;3.80;3.40;;;;;;;;;;5014046;28;20412;-44
2023/04/14 05:06:44;;;;;;;9.50;4.17;;;;;;;;;;5014031;28;20407;-43
2023/04/14 05:09:10;;;;;;;4.57;4.10;;;;;;;;;;5014067;28;20449;-45
2023/04/14 05:11:36;;;;;;;9.70;4.60;;;;;;;;;;5013552;28;20400;-45
2023/04/14 05:14:03;;;;;;;8.47;3.30;;;;;;;;;;5014428;28;20855;-43
2023/04/14 05:16:29;;;;;;;5.65;3.80;;;;;;;;;;5014375;28;20415;-44
2023/04/14 05:18:55;;;;;;;9.60;4.13;;;;;;;;;;5013998;28;20203;-45
2023/04/14 05:21:21;;;;;;;7.85;3.50;;;;;;;;;;5008003;28;20411;-45
2023/04/14 05:23:47;;;;;;;9.03;4.17;;;;;;;;;;5013823;28;20168;-43
2023/04/14 05:26:14;;;;;;;8.60;3.95;;;;;;;;;;5012896;28;20435;-43
2023/04/14 05:28:40;;;;;;;11.52;4.60;;;;;;;;;;5013439;28;20199;-44
2023/04/14 05:31:06;;;;;;;19.42;5.70;;;;;;;;;;5013497;28;20180;-44
2023/04/14 05:33:33;;;;;;;11.15;4.93;;;;;;;;;;5013765;28;20543;-44
2023/04/14 05:35:59;;;;;;;6.45;4.10;;;;;;;;;;5013738;28;20204;-44
2023/04/14 05:38:25;;;;;;;7.13;4.28;;;;;;;;;;5012811;28;20207;-43
2023/04/14 05:40:52;;;;;;;9.98;4.35;;;;;;;;;;5012755;28;20593;-44
2023/04/14 05:43:18;;;;;;;6.43;4.40;;;;;;;;;;5013377;28;20183;-43
2023/04/14 05:45:46;;;;;;;11.82;4.30;;;;;;;;;;5013140;28;20184;-43
2023/04/14 05:48:12;;;;;;;10.75;4.50;;;;;;;;;;5017060;28;20223;-43
2023/04/14 05:50:38;;;;;;;7.45;4.20;;;;;;;;;;5018618;28;20171;-44
2023/04/14 05:53:04;;;;;;;6.93;4.80;;;;;;;;;;5015046;28;20239;-43
2023/04/14 05:55:31;;;;;;;8.82;4.57;;;;;;;;;;5014053;28;20461;-44
2023/04/14 05:57:58;;;;;;;5.00;4.47;;;;;;;;;;5003363;28;20594;-44
2023/04/14 06:00:24;;;;;;;4.73;4.33;;;;;;;;;;5012617;28;20528;-45
2023/04/14 06:02:53;;;;;;;9.40;4.70;;;;;;;;;;5013109;28;20412;-44
2023/04/14 06:05:19;;;;;;;6.43;4.33;;;;;;;;;;5013238;28;20215;-44
2023/04/14 06:07:45;;;;;;;15.55;6.05;;;;;;;;;;5012090;28;20427;-44
2023/04/14 06:10:12;;;;;;;9.40;5.85;;;;;;;;;;5013344;28;20571;-44
2023/04/14 06:12:38;;;;;;;11.00;5.47;;;;;;;;;;5012938;28;20180;-44
2023/04/14 06:15:04;;;;;;;10.15;5.47;;;;;;;;;;5013041;28;20455;-44
2023/04/14 06:17:31;;;;;;;5.13;4.00;;;;;;;;;;5012422;28;20704;-44
2023/04/14 06:19:57;;;;;;;13.23;5.10;;;;;;;;;;5005964;28;20499;-44
2023/04/14 06:22:27;;;;;;;9.13;5.07;;;;;;;;;;5012315;28;20416;-44
2023/04/14 06:24:53;;;;;;;6.00;4.77;;;;;;;;;;5012856;28;20414;-44
2023/04/14 06:27:20;;;;;;;18.20;5.20;;;;;;;;;;5012568;28;20499;-45
2023/04/14 06:29:46;;;;;;;7.13;4.53;;;;;;;;;;5012771;28;20411;-44
2023/04/14 06:32:11;;;;;;;5.83;5.10;;;;;;;;;;5012785;28;20455;-43
2023/04/14 06:34:37;;;;;;;7.17;5.10;;;;;;;;;;5012826;28;20496;-44
2023/04/14 06:37:03;;;;;;;10.43;4.80;;;;;;;;;;5011650;28;20404;-43
2023/04/14 06:39:30;;;;;;;13.60;4.80;;;;;;;;;;5012621;28;20979;-43
2023/04/14 06:41:55;;;;;;;14.47;4.87;;;;;;;;;;5012397;28;20411;-44
2023/04/14 06:44:21;;;;;;;13.93;5.07;;;;;;;;;;5012448;28;20466;-44
2023/04/14 06:46:47;;;;;;;10.30;4.20;;;;;;;;;;5010952;28;20421;-44
2023/04/14 06:49:15;;;;;;;8.03;4.27;;;;;;;;;;5006002;28;20467;-44
2023/04/14 06:51:41;;;;;;;5.87;4.40;;;;;;;;;;5012358;28;20781;-45
2023/04/14 06:54:07;;;;;;;10.43;4.37;;;;;;;;;;5009796;28;20460;-44
2023/04/14 06:56:33;;;;;;;9.50;4.20;;;;;;;;;;5012022;28;20900;-44
2023/04/14 06:58:59;;;;;;;5.97;4.33;;;;;;;;;;5012038;28;20442;-44
2023/04/14 07:01:25;;;;;;;8.50;4.90;;;;;;;;;;5011354;28;20423;-44
2023/04/14 07:03:51;;;;;;;15.33;4.93;;;;;;;;;;5011099;28;20429;-44
2023/04/14 07:06:17;;;;;;;8.13;4.60;;;;;;;;;;5012382;28;20409;-44
2023/04/14 07:08:45;;;;;;;8.37;3.53;;;;;;;;;;5011731;28;20926;-44
2023/04/14 07:13:46;;;;;;;5.47;4.33;;;;;;;;;;5039080;22;20219;-44
2023/04/14 07:16:12;;;;;;;8.67;4.47;;;;;;;;;;5029635;28;20438;-44
2023/04/14 07:18:38;;;;;;;7.73;4.50;;;;;;;;;;5031227;28;20473;-45
2023/04/14 07:21:04;;;;;;;6.23;3.73;;;;;;;;;;5034494;28;20420;-46
2023/04/14 07:23:32;;;;;;;8.70;3.17;;;;;;;;;;5031574;28;20440;-43
2023/04/14 07:25:58;;;;;;;8.60;3.27;;;;;;;;;;5032635;28;20800;-44
2023/04/14 07:28:25;;;;;;;6.10;3.13;;;;;;;;;;5034437;28;20820;-45
2023/04/14 07:30:52;;;;;;;5.73;3.57;;;;;;;;;;5031681;28;20794;-45
2023/04/14 07:33:18;;;;;;;6.73;3.80;;;;;;;;;;5027400;28;20436;-45
2023/04/14 07:35:51;;;;;;;4.97;3.07;;;;;;;;;;5031567;28;20966;-44
2023/04/14 07:38:17;;;;;;;4.33;2.60;;;;;;;;;;5031396;28;20911;-45
2023/04/14 07:40:43;;;;;;;6.53;3.00;;;;;;;;;;5031808;28;20784;-45
2023/04/14 07:43:10;;;;;;;7.50;3.17;;;;;;;;;;5030169;28;20437;-46
2023/04/14 07:45:36;;;;;;;6.60;2.87;;;;;;;;;;5030872;28;20908;-46
2023/04/14 07:48:02;;;;;;;6.50;3.47;;;;;;;;;;5031508;28;20438;-45
2023/04/14 07:50:28;;;;;;;5.27;2.80;;;;;;;;;;5031409;28;20418;-46
2023/04/14 07:52:54;;;;;;;7.67;3.97;;;;;;;;;;5030570;28;20434;-44
2023/04/14 07:55:20;;;;;;;5.80;3.27;;;;;;;;;;5023453;28;21021;-44
2023/04/14 07:57:46;;;;;;;7.20;3.47;;;;;;;;;;5031441;28;20414;-45
2023/04/14 08:00:12;;;;;;;6.70;3.53;;;;;;;;;;5031978;28;20913;-48
2023/04/14 08:02:38;;;;;;;6.87;3.70;;;;;;;;;;5030970;28;20484;-48
2023/04/14 08:05:04;;;;;;;5.77;3.30;;;;;;;;;;5032249;28;20415;-49
2023/04/14 08:07:30;;;;;;;6.00;3.20;;;;;;;;;;5026724;28;20410;-49
2023/04/14 08:09:57;;;;;;;9.47;3.23;;;;;;;;;;5032165;28;20819;-44
2023/04/14 08:12:25;;;;;;;6.30;3.47;;;;;;;;;;5037536;28;20438;-45
2023/04/14 08:14:52;;;;;;;7.03;3.30;;;;;;;;;;5027733;28;20496;-45
2023/04/14 08:17:18;;;;;;;14.07;6.10;;;;;;;;;;5029748;28;20495;-45
2023/04/14 08:19:45;;;;;;;14.47;5.50;;;;;;;;;;5031247;28;20905;-45
2023/04/14 08:22:11;;;;;;;13.50;5.77;;;;;;;;;;5030693;28;20436;-44
2023/04/14 08:24:37;;;;;;;10.90;5.50;;;;;;;;;;5032958;28;20477;-44
2023/04/14 08:27:03;;;;;;;9.90;4.90;;;;;;;;;;5034718;28;20426;-44
2023/04/14 08:29:29;;;;;;;7.93;4.90;;;;;;;;;;5034935;28;20418;-45
2023/04/14 08:31:55;;;;;;;9.83;4.07;;;;;;;;;;5033858;28;20999;-46
2023/04/14 08:34:21;;;;;;;6.50;3.63;;;;;;;;;;5034830;28;20491;-44
2023/04/14 08:36:47;;;;;;;6.50;3.27;;;;;;;;;;5033727;28;20505;-45
2023/04/14 08:39:13;;;;;;;5.67;2.10;;;;;;;;;;5034439;28;20755;-46
2023/04/14 08:41:39;;;;;;;9.60;3.60;;;;;;;;;;5033669;28;20452;-44
2023/04/14 08:44:05;;;;;;;4.20;2.43;;;;;;;;;;5034640;28;20488;-44
2023/04/14 08:46:32;;;;;;;9.97;2.77;;;;;;;;;;5034651;28;20417;-44
2023/04/14 08:49:03;;;;;;;6.50;2.60;;;;;;;;;;5034548;28;20414;-46
2023/04/14 08:51:35;;;;;;;10.73;2.23;;;;;;;;;;5033737;28;20411;-45
2023/04/14 08:54:11;;;;;;;5.80;2.03;;;;;;;;;;5033030;28;20425;-45
2023/04/14 08:56:37;;;;;;;4.97;1.87;;;;;;;;;;5034459;28;20416;-45
2023/04/14 08:59:06;;;;;;;2.77;1.97;;;;;;;;;;5034292;28;20922;-45
2023/04/14 09:01:33;;;;;;;7.07;2.50;;;;;;;;;;5033644;28;20421;-44
2023/04/14 09:04:02;;;;;;;6.90;2.30;;;;;;;;;;5034163;28;20406;-46
2023/04/14 09:06:28;;;;;;;3.70;1.87;;;;;;;;;;5034000;28;20437;-47
2023/04/14 09:08:54;;;;;;;5.57;1.80;;;;;;;;;;5038752;28;20915;-46
2023/04/14 09:11:20;;;;;;;3.63;2.10;;;;;;;;;;5032170;28;20442;-48
2023/04/14 09:13:48;;;;;;;3.57;1.50;;;;;;;;;;5034407;28;20461;-47
2023/04/14 09:16:16;;;;;;;4.57;1.50;;;;;;;;;;5033082;28;20901;-48
2023/04/14 09:18:42;;;;;;;3.13;1.87;;;;;;;;;;5034511;28;20410;-46
2023/04/14 09:21:09;;;;;;;3.60;1.50;;;;;;;;;;5033055;28;20415;-47
2023/04/14 09:23:36;;;;;;;3.10;1.37;;;;;;;;;;5034403;28;20437;-45
2023/04/14 09:26:07;;;;;;;6.60;1.93;;;;;;;;;;5034343;28;20407;-47
2023/04/14 09:28:33;;;;;;;7.93;2.60;;;;;;;;;;5035133;28;20448;-47
2023/04/14 09:31:00;;;;;;;3.10;1.80;;;;;;;;;;5034180;28;20493;-47
2023/04/14 09:33:27;;;;;;;5.30;1.80;;;;;;;;;;5032190;28;20426;-49
2023/04/14 09:35:53;;;;;;;4.20;2.20;;;;;;;;;;5036316;28;20669;-49
2023/04/14 09:38:31;;;;;;;4.27;1.80;;;;;;;;;;5032034;28;20775;-47
2023/04/14 09:40:57;;;;;;;7.30;2.00;;;;;;;;;;5033725;28;20425;-46
2023/04/14 09:43:24;;;;;;;4.60;2.00;;;;;;;;;;5033327;28;20422;-48
2023/04/14 09:45:50;;;;;;;2.70;1.57;;;;;;;;;;5033990;28;20410;-47
2023/04/14 09:48:16;;;;;;;10.53;2.40;;;;;;;;;;5033716;28;20464;-47
2023/04/14 09:51:05;;;;;;;3.10;1.97;;;;;;;;;;5032742;28;20418;-48
2023/04/14 09:53:33;;;;;;;2.87;2.00;;;;;;;;;;5029379;28;20532;-47
2023/04/14 09:56:01;;;;;;;7.00;2.00;;;;;;;;;;5033815;28;20464;-47
2023/04/14 09:58:32;;;;;;;7.43;3.00;;;;;;;;;;5033563;28;20434;-47
2023/04/14 10:00:58;;;;;;;5.50;2.10;;;;;;;;;;5032642;28;20437;-47
2023/04/14 10:03:32;;;;;;;10.73;2.23;;;;;;;;;;5032666;28;20952;-48
2023/04/14 10:05:58;;;;;;;6.00;2.20;;;;;;;;;;5030346;28;20582;-48
2023/04/14 10:08:33;;;;;;;6.80;2.00;;;;;;;;;;5034822;28;20410;-46
2023/04/14 10:11:12;;;;;;;2.47;1.73;;;;;;;;;;5053939;28;20502;-48
2023/04/14 10:13:38;;;;;;;3.10;1.93;;;;;;;;;;5016086;28;20431;-49
2023/04/14 10:16:04;;;;;;;8.30;2.37;;;;;;;;;;5033252;28;20472;-47
2023/04/14 10:18:30;;;;;;;3.60;1.70;;;;;;;;;;5035716;28;20449;-48
2023/04/14 10:20:57;;;;;;;6.90;2.10;;;;;;;;;;5034114;28;20442;-47
2023/04/14 10:23:23;;;;;;;3.17;1.93;;;;;;;;;;5033400;28;20426;-47
2023/04/14 10:25:50;;;;;;;5.93;1.90;;;;;;;;;;5034222;28;20414;-49
2023/04/14 10:28:16;;;;;;;3.90;2.20;;;;;;;;;;5032811;28;20893;-46
2023/04/14 10:30:43;;;;;;;6.47;2.10;;;;;;;;;;5033973;28;20406;-48
2023/04/14 10:33:09;;;;;;;6.20;2.80;;;;;;;;;;5034707;28;20426;-48
2023/04/14 10:35:45;;;;;;;2.80;1.93;;;;;;;;;;5037176;28;20572;-48
2023/04/14 10:38:12;;;;;;;4.57;2.20;;;;;;;;;;5030318;28;20497;-47
2023/04/14 10:40:55;;;;;;;3.33;1.90;;;;;;;;;;5033387;28;20936;-47
2023/04/14 10:43:22;;;;;;;7.23;2.00;;;;;;;;;;5025774;28;20453;-47
2023/04/14 10:45:55;;;;;;;9.93;2.47;;;;;;;;;;5033201;28;20440;-49
2023/04/14 10:48:32;;;;;;;5.90;2.10;;;;;;;;;;5024720;28;20469;-47
2023/04/14 10:50:59;;;;;;;6.70;2.23;;;;;;;;;;5033817;28;20429;-48
2023/04/14 10:53:25;;;;;;;7.77;2.37;;;;;;;;;;5033129;28;20439;-49
2023/04/14 10:55:54;;;;;;;4.27;1.77;;;;;;;;;;5031479;28;20457;-47
2023/04/14 10:58:21;;;;;;;3.87;1.73;;;;;;;;;;5032873;28;20412;-48
2023/04/14 11:00:47;;;;;;;6.30;2.00;;;;;;;;;;5031890;28;20785;-46
2023/04/14 11:03:16;;;;;;;5.83;2.17;;;;;;;;;;5027907;28;20452;-45
2023/04/14 11:05:43;;;;;;;3.80;1.70;;;;;;;;;;5030521;28;20417;-46
2023/04/14 11:08:26;;;;;;;7.60;1.80;;;;;;;;;;5031483;28;20762;-48
2023/04/14 11:11:01;;;;;;;3.30;1.50;;;;;;;;;;5030960;28;20489;-46
2023/04/14 11:13:29;;;;;;;4.73;1.80;;;;;;;;;;5033191;28;20442;-47
2023/04/14 11:16:02;;;;;;;3.77;2.13;;;;;;;;;;5033042;28;20453;-47
2023/04/14 11:18:28;;;;;;;5.40;1.53;;;;;;;;;;5031930;28;20416;-47
2023/04/14 11:21:03;;;;;;;6.13;2.07;;;;;;;;;;5029335;28;20413;-46
2023/04/14 11:23:30;;;;;;;3.60;2.10;;;;;;;;;;5012561;28;20429;-46
2023/04/14 11:25:58;;;;;;;4.10;1.77;;;;;;;;;;5011924;28;20455;-46
2023/04/14 11:28:31;;;;;;;6.30;2.00;;;;;;;;;;5012057;28;20483;-46
2023/04/14 11:30:58;;;;;;;5.73;2.10;;;;;;;;;;5020386;28;20421;-46
2023/04/14 11:33:27;;;;;;;4.10;1.70;;;;;;;;;;5030864;28;20633;-47
2023/04/14 11:35:53;;;;;;;8.23;2.70;;;;;;;;;;5024110;28;20826;-47
2023/04/14 11:38:20;;;;;;;4.57;1.80;;;;;;;;;;5025676;28;21017;-46
2023/04/14 11:40:49;;;;;;;4.20;2.07;;;;;;;;;;5021830;28;20435;-46
2023/04/14 11:43:15;;;;;;;5.87;1.93;;;;;;;;;;5010925;28;20431;-46
2023/04/14 11:45:42;;;;;;;3.00;1.93;;;;;;;;;;5028761;28;20413;-46
2023/04/14 11:48:09;;;;;;;6.57;2.83;;;;;;;;;;5030866;28;20779;-46
2023/04/14 11:50:38;;;;;;;1.77;1.60;;;;;;;;;;5025178;28;20822;-46
2023/04/14 11:53:07;;;;;;;4.10;1.80;;;;;;;;;;5030458;28;20436;-46
2023/04/14 11:55:33;;;;;;;8.70;2.50;;;;;;;;;;5031227;28;20463;-46
2023/04/14 11:58:00;;;;;;;4.57;2.00;;;;;;;;;;5031390;28;20940;-46
2023/04/14 12:00:26;;;;;;;4.97;1.87;;;;;;;;;;5034633;28;20427;-45
2023/04/14 12:02:53;;;;;;;5.33;2.53;;;;;;;;;;5031167;28;20829;-46
2023/04/14 12:05:29;;;;;;;5.73;1.93;;;;;;;;;;5035180;28;20395;-45
2023/04/14 12:07:59;;;;;;;2.47;1.73;;;;;;;;;;5037037;28;20411;-46
2023/04/14 12:10:25;;;;;;;3.73;2.00;;;;;;;;;;5042634;28;20399;-46
2023/04/14 12:12:58;;;;;;;4.37;1.53;;;;;;;;;;5028756;28;20430;-46
2023/04/14 12:15:25;;;;;;;6.10;2.50;;;;;;;;;;5030967;28;20435;-46
2023/04/14 12:17:51;;;;;;;11.43;2.53;;;;;;;;;;5034331;28;20424;-47
2023/04/14 12:20:17;;;;;;;3.00;2.03;;;;;;;;;;5033287;28;20794;-46
2023/04/14 12:22:43;;;;;;;4.10;1.67;;;;;;;;;;5033741;28;20428;-46
2023/04/14 12:25:12;;;;;;;4.40;2.70;;;;;;;;;;5035033;28;20423;-47
2023/04/14 12:27:38;;;;;;;1.93;1.70;;;;;;;;;;5035030;28;20492;-46
2023/04/14 12:30:05;;;;;;;6.00;1.90;;;;;;;;;;5034716;28;20407;-46
2023/04/14 12:32:38;;;;;;;5.03;2.33;;;;;;;;;;5032337;28;20439;-46
2023/04/14 12:35:05;;;;;;;4.53;1.93;;;;;;;;;;5031673;28;20466;-46
2023/04/14 12:37:30;;;;;;;3.37;2.40;;;;;;;;;;5034265;28;20916;-46
2023/04/14 12:39:59;;;;;;;7.57;1.83;;;;;;;;;;5035985;28;20434;-46
2023/04/14 12:42:29;;;;;;;8.20;1.67;;;;;;;;;;5033776;28;20509;-46
2023/04/14 12:44:59;;;;;;;2.43;2.20;;;;;;;;;;5031280;28;20497;-46
2023/04/14 12:47:28;;;;;;;4.53;1.97;;;;;;;;;;5029187;28;20456;-46
2023/04/14 12:49:54;;;;;;;5.80;1.90;;;;;;;;;;5034643;28;20400;-46
2023/04/14 12:52:39;;;;;;;5.97;2.23;;;;;;;;;;5032880;28;20409;-46
2023/04/14 12:55:06;;;;;;;6.00;1.90;;;;;;;;;;5031911;28;20431;-46
2023/04/14 12:57:33;;;;;;;2.80;1.70;;;;;;;;;;5033107;28;20400;-46
2023/04/14 13:00:03;;;;;;;8.10;2.30;;;;;;;;;;5030418;28;20784;-46
2023/04/14 13:02:29;;;;;;;10.43;2.23;;;;;;;;;;5028730;28;20416;-46
2023/04/14 13:04:58;;;;;;;2.93;2.20;;;;;;;;;;5029146;28;20509;-46
2023/04/14 13:07:24;;;;;;;2.20;1.63;;;;;;;;;;5032377;28;20735;-46
2023/04/14 13:09:51;;;;;;;2.47;1.37;;;;;;;;;;5036783;28;20438;-46
2023/04/14 13:12:17;;;;;;;7.03;2.27;;;;;;;;;;5030715;28;20568;-46
2023/04/14 13:14:43;;;;;;;5.80;1.93;;;;;;;;;;5031979;28;20559;-46
2023/04/14 13:17:09;;;;;;;2.57;1.57;;;;;;;;;;5032048;28;20444;-46
2023/04/14 13:19:35;;;;;;;6.30;2.40;;;;;;;;;;5031970;28;20840;-46
2023/04/14 13:22:01;;;;;;;5.00;2.17;;;;;;;;;;5031110;28;20438;-46
2023/04/14 13:24:27;;;;;;;1.77;1.67;;;;;;;;;;5033032;28;20407;-46
2023/04/14 13:26:53;;;;;;;2.03;1.50;;;;;;;;;;5033182;28;20478;-46
2023/04/14 13:29:19;;;;;;;4.03;1.70;;;;;;;;;;5033806;28;20508;-46
2023/04/14 13:31:45;;;;;;;4.20;2.20;;;;;;;;;;5032610;28;20442;-45
2023/04/14 13:34:11;;;;;;;2.33;1.53;;;;;;;;;;5033424;28;20410;-46
2023/04/14 13:36:37;;;;;;;6.80;2.20;;;;;;;;;;5033716;28;20759;-46
2023/04/14 13:39:03;;;;;;;5.93;1.93;;;;;;;;;;5033574;28;20957;-46
2023/04/14 13:41:29;;;;;;;3.90;2.03;;;;;;;;;;5034069;28;20443;-47
2023/04/14 13:43:55;;;;;;;3.53;1.77;;;;;;;;;;5029471;28;20457;-46
2023/04/14 13:46:21;;;;;;;2.63;1.80;;;;;;;;;;5025350;28;20492;-46
2023/04/14 13:48:47;;;;;;;4.80;1.57;;;;;;;;;;5032683;28;20858;-45
2023/04/14 13:51:13;;;;;;;4.50;2.00;;;;;;;;;;5033151;28;20445;-47
2023/04/14 13:53:39;;;;;;;13.43;2.43;;;;;;;;;;5031542;28;20457;-46
2023/04/14 13:56:05;;;;;;;4.47;1.90;;;;;;;;;;5028139;28;20458;-47
2023/04/14 13:58:31;;;;;;;3.33;1.80;;;;;;;;;;5033281;28;20407;-46
2023/04/14 14:00:57;;;;;;;3.77;1.87;;;;;;;;;;5033349;28;20377;-46
2023/04/14 14:03:23;;;;;;;3.33;1.57;;;;;;;;;;5032531;28;20910;-45
2023/04/14 14:05:50;;;;;;;4.50;2.27;;;;;;;;;;5033214;28;20430;-47
2023/04/14 14:08:16;;;;;;;2.43;1.70;;;;;;;;;;5033110;28;20412;-46
2023/04/14 14:10:42;;;;;;;3.93;2.20;;;;;;;;;;5038130;28;20758;-46
2023/04/14 14:13:08;;;;;;;3.23;1.73;;;;;;;;;;5028375;28;20528;-46
2023/04/14 14:15:34;;;;;;;3.07;1.90;;;;;;;;;;5032781;28;20461;-46
2023/04/14 14:18:00;;;;;;;2.07;1.70;;;;;;;;;;5031300;28;20473;-46
2023/04/14 14:20:26;;;;;;;5.73;2.17;;;;;;;;;;5032917;28;20460;-47
2023/04/14 14:22:52;;;;;;;10.60;2.10;;;;;;;;;;5031962;28;20433;-47
2023/04/14 14:25:18;;;;;;;2.17;1.70;;;;;;;;;;5032468;28;20424;-46
2023/04/14 14:27:44;;;;;;;5.80;2.20;;;;;;;;;;5026437;28;20496;-46
2023/04/14 14:30:10;;;;;;;3.13;1.93;;;;;;;;;;5032653;28;20828;-46
2023/04/14 14:32:37;;;;;;;6.00;2.00;;;;;;;;;;5030389;28;20469;-46
2023/04/14 14:35:03;;;;;;;8.30;2.07;;;;;;;;;;5032499;28;20560;-45
2023/04/14 14:37:29;;;;;;;3.57;2.00;;;;;;;;;;5032638;28;20423;-46
2023/04/14 14:39:56;;;;;;;5.07;2.60;;;;;;;;;;5032329;28;20986;-45
2023/04/14 14:42:22;;;;;;;4.60;2.47;;;;;;;;;;5034026;28;20855;-46
2023/04/14 14:44:48;;;;;;;3.70;2.37;;;;;;;;;;5036090;28;20419;-45